Latest Coastal Weather Observations for Spring Bay

IDT60701

Issued at 3:45 am EST Friday 1 August 2014 (issued every 10 minutes, with the page automatically refreshed every 10 minutes)

About coastal observations | Map of coastal stations | Coastal observations for TAS | Marine services | Other Formats
Station Details ID: 092133 Name: SPRING BAY NTC AWS Lat: -42.55 Lon: 147.93 Height: 0.0 m
Data from the previous 72 hours. | See also: Recent months for locations in Tasmania
Date/Time
EST
Temp

°C
Wind Pressure Rain
since 9am
mm
Weather Cloud Vis
km
Sea
Height
m
Swell
Dir
 
Speed
knots
Gust
knots
hPa Trend Height
m
Period
s
Dir
01/03:42am 6.7 W 24 28 988.9 - - - - - - - - -
01/03:30am 7.6 WNW 34 54 989.0 - - - - - - - - -
01/03:29am 7.5 WNW 36 54 988.7 - - - - - - - - -
01/03:16am 7.1 WNW 19 29 988.5 - - - - - - - - -
01/03:00am 7.0 WNW 17 24 988.4 - - - - - - - - -
01/02:30am 6.7 WNW 20 26 988.2 - - - - - - - - -
01/02:11am 7.0 WNW 29 40 988.3 - - - - - - - - -
01/02:08am 6.9 W 33 40 988.5 - - - - - - - - -
01/02:04am 7.2 WNW 19 33 988.4 - - - - - - - - -
01/02:00am 6.8 WNW 17 24 988.3 - - - - - - - - -
01/01:30am 6.8 WNW 16 22 987.5 - - - - - - - - -
01/01:00am 6.8 WNW 22 29 987.6 - - - - - - - - -
01/12:30am 6.8 WNW 21 28 987.7 - - - - - - - - -
01/12:10am 6.9 WNW 20 30 987.4 - - - - - - - - -
01/12:00am 6.8 WNW 23 32 987.5 - - - - - - - - -
 
Date/Time
EST
Temp

°C
Wind Pressure Rain
since 9am
mm
Weather Cloud Vis
km
Sea
Height
m
Swell
Dir
 
Speed
knots
Gust
knots
hPa Trend Height
m
Period
s
Dir
31/11:51pm 6.9 W 21 31 987.6 - - - - - - - - -
31/11:34pm 6.9 WNW 17 23 987.2 - - - - - - - - -
31/11:30pm 6.9 W 22 33 987.3 - - - - - - - - -
31/11:29pm 7.0 WSW 23 33 987.4 - - - - - - - - -
31/11:24pm 7.7 WSW 25 33 987.5 - - - - - - - - -
31/11:00pm 7.9 WNW 9 12 986.0 - - - - - - - - -
31/10:30pm 8.4 WNW 13 18 985.1 - - - - - - - - -
31/10:00pm 8.8 WNW 21 27 985.2 - - - - - - - - -
31/09:30pm 9.0 NW 21 27 984.8 - - - - - - - - -
31/09:00pm 9.3 WNW 21 27 984.6 - - - - - - - - -
31/08:30pm 9.5 NW 18 25 983.5 - - - - - - - - -
31/08:00pm 9.7 WNW 19 26 983.6 - - - - - - - - -
31/07:55pm 9.9 WNW 19 29 983.2 - - - - - - - - -
31/07:30pm 9.8 NW 17 26 983.2 - - - - - - - - -
31/07:00pm 9.6 NW 22 29 982.8 - - - - - - - - -
31/06:30pm 10.0 NW 28 36 982.1 - - - - - - - - -
31/06:00pm 10.1 NW 27 34 981.9 - - - - - - - - -
31/05:30pm 10.1 NW 26 32 981.6 - - - - - - - - -
31/05:10pm 9.8 NW 15 23 981.5 - - - - - - - - -
31/05:00pm 9.3 NW 9 13 981.6 - - - - - - - - -
31/04:30pm 9.4 W 11 17 982.7 - - - - - - - - -
31/04:00pm 8.4 W 5 7 982.7 - - - - - - - - -
31/03:30pm 8.5 SW 7 10 981.8 - - - - - - - - -
31/03:00pm 8.6 SW 7 12 980.6 - - - - - - - - -
31/02:30pm 8.7 WSW 9 14 982.2 - - - - - - - - -
31/02:02pm 8.7 S 16 26 981.4 - - - - - - - - -
31/02:00pm 8.9 S 18 26 981.3 - - - - - - - - -
31/01:58pm 9.2 SSW 29 34 981.1 - - - - - - - - -
31/01:55pm 8.7 WSW 21 26 981.0 - - - - - - - - -
31/01:30pm 9.2 S 11 16 979.7 - - - - - - - - -
31/01:00pm 8.6 SE 12 18 980.2 - - - - - - - - -
31/12:30pm 8.7 SSE 9 12 981.8 - - - - - - - - -
31/12:00pm 8.5 SSE 9 12 983.3 - - - - - - - - -
31/11:30am 8.6 SSE 16 19 984.3 - - - - - - - - -
31/11:00am 8.6 SSE 8 9 984.8 - - - - - - - - -
31/10:30am 8.8 E 2 3 985.1 - - - - - - - - -
31/10:00am 8.6 N 2 4 986.2 - - - - - - - - -
31/09:30am 8.1 N 2 3 987.1 - - - - - - - - -
31/09:00am 8.3 CALM 0 2 987.9 - - - - - - - - -
31/08:30am 8.2 N 2 4 988.1 - - - - - - - - -
31/08:00am 8.3 WNW 4 7 988.7 - - - - - - - - -
31/07:30am 8.9 W 3 6 989.6 - - - - - - - - -
31/07:00am 9.6 SSE 12 15 989.6 - - - - - - - - -
31/06:30am 9.7 SE 11 14 989.3 - - - - - - - - -
31/06:00am 12.0 SSW 11 17 988.9 - - - - - - - - -
31/05:30am 13.7 NW 19 24 988.5 - - - - - - - - -
31/05:19am 13.9 NW 19 29 988.2 - - - - - - - - -
31/05:00am 13.5 NW 18 23 988.4 - - - - - - - - -
31/04:30am 13.6 NW 19 25 988.4 - - - - - - - - -
31/04:00am 13.7 NW 16 21 988.4 - - - - - - - - -
31/03:30am 13.7 NW 20 24 988.8 - - - - - - - - -
31/03:00am 14.0 NW 23 30 988.8 - - - - - - - - -
31/02:58am 13.9 NW 24 35 988.9 - - - - - - - - -
31/02:30am 14.0 NW 26 34 989.1 - - - - - - - - -
31/02:00am 14.0 NW 27 42 989.4 - - - - - - - - -
31/01:30am 13.3 NW 26 38 989.2 - - - - - - - - -
31/01:24am 13.4 NW 27 38 989.2 - - - - - - - - -
31/01:00am 13.5 NW 30 38 989.5 - - - - - - - - -
31/12:30am 13.6 NW 31 42 989.9 - - - - - - - - -
31/12:01am 13.5 NW 30 40 990.4 - - - - - - - - -
31/12:00am 13.3 NW 29 36 990.3 - - - - - - - - -
 
Date/Time
EST
Temp

°C
Wind Pressure Rain
since 9am
mm
Weather Cloud Vis
km
Sea
Height
m
Swell
Dir
 
Speed
knots
Gust
knots
hPa Trend Height
m
Period
s
Dir
30/11:31pm 13.5 NW 30 41 990.4 - - - - - - - - -
30/11:30pm 13.6 NW 30 37 990.4 - - - - - - - - -
30/11:09pm 14.0 WNW 29 40 990.8 - - - - - - - - -
30/11:00pm 13.8 WNW 27 35 991.1 - - - - - - - - -
30/10:41pm 13.8 WNW 25 35 991.2 - - - - - - - - -
30/10:30pm 13.9 WNW 23 31 991.3 - - - - - - - - -
30/10:00pm 13.9 WNW 28 38 991.2 - - - - - - - - -
30/09:30pm 14.1 NW 30 42 991.5 - - - - - - - - -
30/09:00pm 14.2 WNW 30 46 991.9 - - - - - - - - -
30/08:30pm 13.9 WNW 30 45 992.1 - - - - - - - - -
30/08:05pm 13.7 WNW 25 36 992.2 - - - - - - - - -
30/08:00pm 13.5 WNW 24 31 992.2 - - - - - - - - -
30/07:30pm 14.2 WNW 21 33 993.0 - - - - - - - - -
30/07:00pm 14.3 WNW 22 34 993.6 - - - - - - - - -
30/06:38pm 14.6 WNW 21 31 993.3 - - - - - - - - -
30/06:30pm 14.7 W 23 30 993.5 - - - - - - - - -
30/06:06pm 14.4 WNW 20 31 993.5 - - - - - - - - -
30/06:00pm 14.3 WNW 23 31 993.6 - - - - - - - - -
30/05:50pm 14.0 WNW 18 28 993.5 - - - - - - - - -
30/05:30pm 13.9 WNW 22 29 993.3 - - - - - - - - -
30/05:00pm 13.9 WNW 21 28 993.5 - - - - - - - - -
30/04:30pm 13.7 WNW 22 32 993.5 - - - - - - - - -
30/04:01pm 14.4 WNW 24 35 993.1 - - - - - - - - -
30/04:00pm 14.4 WNW 24 30 993.1 - - - - - - - - -
30/03:30pm 14.3 WNW 23 30 992.9 - - - - - - - - -
30/03:00pm 14.3 WNW 18 23 993.4 - - - - - - - - -
30/02:30pm 14.9 WNW 23 34 993.5 - - - - - - - - -
30/02:00pm 14.8 W 26 39 993.6 - - - - - - - - -
30/01:30pm 15.0 W 21 32 993.7 - - - - - - - - -
30/01:00pm 14.6 WNW 24 37 993.7 - - - - - - - - -
30/12:30pm 14.0 WNW 30 40 994.5 - - - - - - - - -
30/12:17pm 14.1 WNW 29 40 994.6 - - - - - - - - -
30/12:08pm 14.0 WNW 34 39 994.7 - - - - - - - - -
30/12:00pm 14.7 WNW 23 38 994.8 - - - - - - - - -
30/11:30am 14.3 WNW 20 31 995.4 - - - - - - - - -
30/11:00am 13.4 WNW 21 38 995.8 - - - - - - - - -
30/10:30am 13.2 WNW 24 35 996.3 - - - - - - - - -
30/10:14am 12.7 WNW 21 32 996.4 - - - - - - - - -
30/10:00am 12.5 WNW 19 28 996.3 - - - - - - - - -
30/09:30am 12.1 WNW 16 27 996.6 - - - - - - - - -
30/09:28am 11.9 WNW 16 27 996.6 - - - - - - - - -
30/09:00am 11.5 WNW 18 25 996.7 - - - - - - - - -
30/08:30am 11.4 WNW 18 23 997.0 - - - - - - - - -
30/08:06am 11.1 NW 16 28 997.1 - - - - - - - - -
30/08:00am 11.1 NW 12 18 997.1 - - - - - - - - -
30/07:30am 11.1 NNW 9 14 996.8 - - - - - - - - -
30/07:00am 11.6 WNW 13 18 996.5 - - - - - - - - -
30/06:30am 11.3 W 13 20 997.3 - - - - - - - - -
30/06:10am 11.4 W 17 28 997.1 - - - - - - - - -
30/06:00am 11.4 W 20 28 997.0 - - - - - - - - -
30/05:31am 10.9 W 19 29 997.0 - - - - - - - - -
30/05:30am 10.9 W 20 29 997.0 - - - - - - - - -
30/05:00am 10.8 W 23 40 996.8 - - - - - - - - -
30/04:35am 11.0 W 26 38 996.9 - - - - - - - - -
30/04:30am 11.1 W 23 32 996.7 - - - - - - - - -
30/04:02am 11.1 W 22 33 996.1 - - - - - - - - -
30/04:00am 11.2 W 23 33 996.2 - - - - - - - - -
30/03:39am 11.0 W 20 30 995.3 - - - - - - - - -
30/03:30am 10.8 W 20 29 995.2 - - - - - - - - -
30/03:00am 10.3 W 21 32 994.7 - - - - - - - - -
30/02:30am 10.4 W 20 32 994.2 - - - - - - - - -
30/02:08am 10.1 W 15 25 993.6 - - - - - - - - -
30/02:00am 10.1 W 17 24 993.4 - - - - - - - - -
30/01:38am 9.7 W 18 25 993.7 - - - - - - - - -
30/01:30am 9.9 W 30 44 993.7 - - - - - - - - -
30/01:06am 10.7 WSW 36 55 993.0 - - - - - - - - -
30/01:05am 10.4 W 16 48 993.0 - - - - - - - - -
30/01:00am 10.1 W 15 22 993.1 - - - - - - - - -
30/12:38am 9.7 W 19 30 992.3 - - - - - - - - -
30/12:30am 9.5 W 23 30 992.5 - - - - - - - - -
30/12:03am 10.6 WSW 21 35 991.5 - - - - - - - - -
30/12:00am 10.7 WNW 13 26 991.5 - - - - - - - - -
 
Date/Time
EST
Temp

°C
Wind Pressure Rain
since 9am
mm
Weather Cloud Vis
km
Sea
Height
m
Swell
Dir
 
Speed
knots
Gust
knots
hPa Trend Height
m
Period
s
Dir
29/11:32pm 10.3 WNW 18 29 991.0 - - - - - - - - -
29/11:30pm 10.2 WNW 17 23 991.1 - - - - - - - - -
29/11:00pm 9.7 W 19 30 991.2 - - - - - - - - -
29/10:57pm 9.5 W 20 30 991.3 - - - - - - - - -
29/10:54pm 9.6 W 20 28 991.5 - - - - - - - - -
29/10:43pm 10.4 SW 21 33 992.0 - - - - - - - - -
29/10:42pm 10.5 SW 20 30 991.7 - - - - - - - - -
29/10:38pm 10.7 W 29 39 991.4 - - - - - - - - -
29/10:36pm 10.8 W 32 39 991.4 - - - - - - - - -
29/10:35pm 10.6 WNW 18 39 991.3 - - - - - - - - -
29/10:33pm 10.4 WNW 16 27 991.1 - - - - - - - - -
29/10:30pm 10.5 WNW 17 27 990.8 - - - - - - - - -
29/10:00pm 10.3 WNW 28 40 990.7 - - - - - - - - -
29/09:54pm 10.5 WNW 27 40 990.9 - - - - - - - - -
29/09:53pm 10.5 WNW 26 34 990.6 - - - - - - - - -
29/09:38pm 12.8 WNW 44 56 990.2 - - - - - - - - -
29/09:37pm 13.0 WNW 31 56 990.1 - - - - - - - - -
29/09:30pm 13.3 W 25 40 989.3 - - - - - - - - -
29/09:00pm 13.9 W 27 38 989.1 - - - - - - - - -
29/08:54pm 13.9 W 26 33 989.0 - - - - - - - - -
29/08:47pm 14.1 W 38 50 988.7 - - - - - - - - -
29/08:46pm 14.1 W 41 50 988.9 - - - - - - - - -
29/08:36pm 13.8 W 26 47 988.1 - - - - - - - - -
29/08:30pm 13.5 W 26 36 987.8 - - - - - - - - -
29/08:00pm 13.1 W 23 34 987.8 - - - - - - - - -
29/07:30pm 12.1 WNW 20 37 987.7 - - - - - - - - -
29/07:15pm 11.2 W 22 35 987.6 - - - - - - - - -
29/07:14pm 10.9 W 21 31 987.8 - - - - - - - - -
29/07:09pm 11.0 WSW 31 43 989.0 - - - - - - - - -
29/07:07pm 12.0 WSW 18 31 988.8 - - - - - - - - -
29/07:03pm 12.7 WNW 33 45 988.4 - - - - - - - - -
29/07:02pm 13.1 WNW 18 45 988.4 - - - - - - - - -
29/07:00pm 13.4 WNW 17 26 988.0 - - - - - - - - -
29/06:30pm 13.9 WNW 23 35 986.6 - - - - - - - - -
29/06:00pm 14.3 WNW 29 43 986.3 - - - - - - - - -
29/05:43pm 14.1 WNW 31 53 986.4 - - - - - - - - -
29/05:42pm 14.0 WNW 28 38 986.4 - - - - - - - - -
29/05:41pm 13.6 WNW 27 34 986.4 - - - - - - - - -
29/05:35pm 13.6 NW 39 51 985.1 - - - - - - - - -
29/05:32pm 13.3 NW 25 38 985.7 - - - - - - - - -
29/05:30pm 13.4 NW 24 33 985.4 - - - - - - - - -
29/05:28pm 13.4 NW 23 33 985.4 - - - - - - - - -
29/05:00pm 13.3 NW 24 34 985.7 - - - - - - - - -
29/04:46pm 13.5 NW 25 36 986.2 - - - - - - - - -
29/04:30pm 13.6 NNW 26 33 986.1 - - - - - - - - -
29/04:00pm 13.3 NW 21 27 986.8 - - - - - - - - -
29/03:30pm 13.4 NW 19 25 987.1 - - - - - - - - -
29/03:00pm 13.7 NW 22 28 988.0 - - - - - - - - -
29/02:30pm 13.6 WNW 17 25 988.2 - - - - - - - - -
29/02:00pm 13.0 WNW 15 23 988.6 - - - - - - - - -

Other Formats:

Comma delimited format used in spreadsheet applications
http://www.bom.gov.au/fwo/IDT60701/IDT60701.95987.axf

JavaScript Object Notation format (JSON) in row-major order
http://www.bom.gov.au/fwo/IDT60701/IDT60701.95987.json